Time;durP1;ratioP1;P1;durP2;ratioP2;P2;SDS_P1;SDS_P2;PMS_P1;PMS_P2;Temp;Humidity;BMP_temperature;BMP_pressure;BME280_temperature;BME280_humidity;BME280_pressure;Samples;Min_cycle;Max_cycle;Signal;HPM_P1;HPM_P2
2022/09/26 00:02:14;;;;;;;14.97;11.30;;;20.40;50.00;;;;;;4997712;28;20453;-80
2022/09/26 00:04:41;;;;;;;14.90;11.17;;;20.50;50.30;;;;;;4999428;28;20448;-80
2022/09/26 00:07:09;;;;;;;14.37;10.47;;;20.50;50.20;;;;;;4988945;28;20450;-80
2022/09/26 00:09:37;;;;;;;12.70;10.00;;;20.50;50.30;;;;;;4980161;28;20541;-80
2022/09/26 00:12:06;;;;;;;13.57;10.33;;;20.40;50.10;;;;;;4996738;28;20430;-80
2022/09/26 00:14:35;;;;;;;12.80;10.13;;;20.40;50.30;;;;;;4997251;28;20468;-80
2022/09/26 00:17:03;;;;;;;14.17;10.37;;;20.40;50.20;;;;;;4999036;28;20457;-80
2022/09/26 00:19:31;;;;;;;12.50;10.00;;;20.40;51.10;;;;;;4990009;28;20549;-81
2022/09/26 00:21:59;;;;;;;13.63;9.93;;;20.40;50.20;;;;;;4992795;28;20465;-82
2022/09/26 00:24:27;;;;;;;12.57;10.10;;;20.40;50.50;;;;;;4991499;28;20470;-80
2022/09/26 00:26:56;;;;;;;15.33;9.80;;;20.40;50.50;;;;;;4997688;28;20441;-80
2022/09/26 00:29:23;;;;;;;12.10;9.07;;;20.30;50.70;;;;;;4997340;28;20516;-81
2022/09/26 00:31:52;;;;;;;12.90;10.10;;;20.40;50.80;;;;;;4995855;28;20457;-81
2022/09/26 00:34:20;;;;;;;11.20;9.07;;;20.40;50.80;;;;;;4998027;28;20747;-81
2022/09/26 00:36:48;;;;;;;11.60;8.20;;;20.40;50.80;;;;;;4995681;28;20465;-81
2022/09/26 00:39:16;;;;;;;12.67;8.43;;;20.40;50.80;;;;;;4995602;28;20453;-81
2022/09/26 00:41:44;;;;;;;10.83;8.57;;;20.40;50.90;;;;;;4993879;28;20861;-81
2022/09/26 00:44:54;;;;;;;11.50;8.83;;;20.40;50.80;;;;;;4996178;28;20476;-80
2022/09/26 00:47:36;;;;;;;14.13;9.13;;;20.40;50.90;;;;;;4988169;28;20457;-80
2022/09/26 00:50:07;;;;;;;12.30;8.33;;;20.40;50.80;;;;;;4996910;28;20477;-81
2022/09/26 00:52:36;;;;;;;12.03;8.93;;;20.30;50.90;;;;;;4991072;28;20453;-82
2022/09/26 00:55:06;;;;;;;9.87;7.90;;;20.40;51.10;;;;;;4998020;28;20453;-81
2022/09/26 00:57:37;;;;;;;9.27;8.07;;;20.40;51.30;;;;;;4993303;28;20438;-82
2022/09/26 01:00:08;;;;;;;10.10;8.07;;;20.30;51.00;;;;;;4999170;28;20499;-82
2022/09/26 01:02:37;;;;;;;9.20;7.83;;;20.30;51.00;;;;;;4997737;28;20460;-82
2022/09/26 01:05:06;;;;;;;10.37;7.70;;;20.30;51.10;;;;;;4998930;28;20473;-82
2022/09/26 01:07:34;;;;;;;9.53;7.70;;;20.30;51.30;;;;;;4999934;28;20460;-82
2022/09/26 01:10:03;;;;;;;9.10;7.27;;;20.30;51.50;;;;;;4994285;28;20486;-82
2022/09/26 01:12:31;;;;;;;8.90;7.57;;;20.30;51.30;;;;;;4986273;28;20480;-81
2022/09/26 01:14:58;;;;;;;10.30;7.40;;;20.30;51.60;;;;;;4991911;28;20456;-82
2022/09/26 01:17:26;;;;;;;9.20;6.70;;;20.30;51.50;;;;;;4994413;28;20449;-82
2022/09/26 01:20:03;;;;;;;9.20;6.80;;;20.30;51.30;;;;;;4991445;28;20480;-82
2022/09/26 01:22:44;;;;;;;8.50;6.70;;;20.30;51.40;;;;;;4999096;28;20444;-82
2022/09/26 01:25:19;;;;;;;10.43;6.93;;;20.30;51.70;;;;;;4999618;28;20544;-82
2022/09/26 01:28:06;;;;;;;8.17;6.20;;;20.30;51.70;;;;;;5002530;28;20503;-82
2022/09/26 01:30:38;;;;;;;7.33;6.40;;;20.30;51.50;;;;;;4992627;28;20473;-82
2022/09/26 01:33:40;;;;;;;7.67;6.57;;;20.20;51.50;;;;;;4990480;28;20465;-82
2022/09/26 01:36:18;;;;;;;7.87;6.50;;;20.30;51.70;;;;;;4991623;28;20520;-82
2022/09/26 01:38:52;;;;;;;8.77;6.37;;;20.20;51.60;;;;;;4996445;28;20449;-82
2022/09/26 01:41:31;;;;;;;7.10;5.93;;;20.20;51.80;;;;;;4986755;28;20452;-82
2022/09/26 01:44:05;;;;;;;7.77;6.43;;;20.20;51.60;;;;;;4996415;28;20534;-82
2022/09/26 01:46:35;;;;;;;8.70;6.40;;;20.30;52.00;;;;;;4994798;28;20441;-82
2022/09/26 01:49:08;;;;;;;6.87;6.17;;;20.20;52.00;;;;;;4999243;28;20461;-82
2022/09/26 01:51:38;;;;;;;6.63;5.40;;;20.20;51.70;;;;;;4987172;28;20476;-82
2022/09/26 01:54:08;;;;;;;6.20;5.43;;;20.20;51.80;;;;;;4996062;28;20480;-82
2022/09/26 01:56:38;;;;;;;8.93;6.10;;;20.10;51.90;;;;;;4991674;28;20557;-82
2022/09/26 01:59:07;;;;;;;5.43;4.87;;;20.20;52.10;;;;;;4998856;28;20428;-82
2022/09/26 02:01:38;;;;;;;10.13;5.20;;;20.20;51.90;;;;;;4992146;28;20563;-81
2022/09/26 02:04:09;;;;;;;6.80;5.70;;;20.20;51.80;;;;;;4995207;28;20859;-81
2022/09/26 02:06:37;;;;;;;5.77;5.27;;;20.10;51.80;;;;;;4997712;28;20461;-82
2022/09/26 02:09:08;;;;;;;6.50;5.40;;;20.10;51.90;;;;;;4994279;28;20489;-82
2022/09/26 02:11:36;;;;;;;6.13;5.43;;;20.10;51.80;;;;;;5002076;28;20473;-81
2022/09/26 02:14:04;;;;;;;10.23;7.80;;;20.20;51.90;;;;;;5000633;28;20469;-81
2022/09/26 02:16:41;;;;;;;10.50;7.90;;;20.10;52.50;;;;;;4993716;28;20471;-81
2022/09/26 02:19:12;;;;;;;9.53;7.00;;;20.10;51.90;;;;;;4994741;28;20458;-81
2022/09/26 02:21:40;;;;;;;10.90;8.20;;;20.10;51.90;;;;;;5002293;28;20473;-82
2022/09/26 02:24:08;;;;;;;12.87;8.80;;;20.10;52.10;;;;;;4996865;28;20488;-81
2022/09/26 02:26:36;;;;;;;13.70;9.37;;;20.10;51.90;;;;;;4999305;28;20459;-82
2022/09/26 02:29:05;;;;;;;11.57;8.70;;;20.10;52.00;;;;;;5002455;28;20445;-81
2022/09/26 02:31:35;;;;;;;15.73;10.30;;;20.10;52.00;;;;;;4991760;28;20478;-81
2022/09/26 02:34:04;;;;;;;14.00;9.93;;;20.10;52.00;;;;;;5003385;28;20494;-81
2022/09/26 02:36:33;;;;;;;13.10;9.67;;;20.10;52.20;;;;;;4995344;28;20457;-82
2022/09/26 02:39:01;;;;;;;11.97;8.90;;;20.10;51.90;;;;;;4998455;28;20449;-82
2022/09/26 02:41:34;;;;;;;13.73;9.27;;;20.10;52.00;;;;;;4999195;28;20499;-82
2022/09/26 02:44:10;;;;;;;14.00;10.13;;;20.10;52.10;;;;;;5002497;28;20492;-82
2022/09/26 02:46:45;;;;;;;12.97;9.70;;;20.10;52.00;;;;;;4993578;28;20460;-81
2022/09/26 02:49:21;;;;;;;14.00;9.93;;;20.10;52.10;;;;;;4997502;28;20456;-82
2022/09/26 02:51:59;;;;;;;12.50;9.23;;;20.10;52.00;;;;;;4999576;28;20464;-81
2022/09/26 02:54:31;;;;;;;12.17;9.00;;;20.10;52.00;;;;;;4999639;28;20491;-81
2022/09/26 02:57:07;;;;;;;13.77;9.50;;;20.10;52.10;;;;;;5001273;28;20468;-81
2022/09/26 02:59:37;;;;;;;12.60;9.50;;;20.00;51.90;;;;;;4993622;28;20445;-81
2022/09/26 03:02:09;;;;;;;16.03;8.67;;;20.00;52.20;;;;;;4997893;28;20464;-82
2022/09/26 03:04:41;;;;;;;12.70;7.83;;;20.10;52.00;;;;;;5000597;28;20472;-81
2022/09/26 03:07:11;;;;;;;12.50;9.30;;;20.10;52.10;;;;;;5000871;28;20428;-82
2022/09/26 03:09:39;;;;;;;12.53;8.27;;;20.10;52.00;;;;;;4999844;28;20477;-82
2022/09/26 03:12:08;;;;;;;11.77;8.70;;;20.00;52.10;;;;;;4999153;28;20457;-82
2022/09/26 03:14:36;;;;;;;10.77;7.60;;;20.00;52.20;;;;;;4994803;28;20508;-81
2022/09/26 03:17:04;;;;;;;14.10;8.63;;;20.00;51.90;;;;;;4999694;28;20463;-81
2022/09/26 03:19:34;;;;;;;12.50;8.17;;;20.00;52.00;;;;;;4998826;28;20461;-81
2022/09/26 03:22:04;;;;;;;9.00;7.33;;;20.00;52.00;;;;;;4999525;28;20454;-82
2022/09/26 03:24:32;;;;;;;10.40;7.60;;;20.00;52.00;;;;;;4989911;28;20469;-82
2022/09/26 03:27:03;;;;;;;9.97;7.97;;;19.90;52.10;;;;;;4994238;28;20461;-82
2022/09/26 03:29:31;;;;;;;10.93;7.90;;;20.00;52.10;;;;;;4994810;28;20508;-82
2022/09/26 03:32:00;;;;;;;9.73;7.30;;;20.00;52.40;;;;;;4999250;28;20453;-82
2022/09/26 03:34:28;;;;;;;8.73;6.80;;;20.00;52.00;;;;;;4997854;28;20941;-82
2022/09/26 03:36:56;;;;;;;10.00;7.30;;;20.00;52.30;;;;;;4999322;28;20448;-82
2022/09/26 03:39:25;;;;;;;9.03;6.87;;;20.10;52.20;;;;;;4996613;28;20497;-82
2022/09/26 03:41:54;;;;;;;11.20;7.00;;;20.10;51.70;;;;;;4995061;28;20464;-82
2022/09/26 03:44:23;;;;;;;9.87;7.20;;;20.00;52.10;;;;;;4995897;28;20543;-82
2022/09/26 03:46:51;;;;;;;8.47;6.30;;;20.00;51.90;;;;;;4998738;28;20476;-81
2022/09/26 03:49:19;;;;;;;10.00;6.67;;;20.00;51.90;;;;;;4995016;28;20453;-82
2022/09/26 03:51:47;;;;;;;8.47;6.13;;;20.00;52.10;;;;;;4997757;28;20457;-81
2022/09/26 03:54:16;;;;;;;8.67;6.00;;;20.00;52.10;;;;;;4987985;28;20462;-81
2022/09/26 03:56:45;;;;;;;7.70;6.10;;;20.00;52.00;;;;;;4997225;28;20464;-82
2022/09/26 03:59:13;;;;;;;7.80;6.13;;;20.00;52.00;;;;;;4997728;28;20460;-82
2022/09/26 04:01:42;;;;;;;7.53;5.53;;;20.00;52.30;;;;;;4989605;28;20505;-81
2022/09/26 04:04:09;;;;;;;7.93;6.10;;;20.00;51.80;;;;;;4997671;28;20499;-81
2022/09/26 04:06:38;;;;;;;7.17;5.47;;;20.00;51.90;;;;;;4998231;28;20478;-81
2022/09/26 04:09:05;;;;;;;7.10;5.70;;;20.00;52.00;;;;;;4998520;28;20465;-81
2022/09/26 04:11:33;;;;;;;6.27;5.10;;;20.00;52.10;;;;;;4996315;28;20464;-81
2022/09/26 04:14:02;;;;;;;7.70;5.57;;;20.00;51.90;;;;;;4996792;28;20464;-81
2022/09/26 04:16:30;;;;;;;5.97;5.37;;;20.00;52.00;;;;;;4984491;28;20464;-81
2022/09/26 04:18:58;;;;;;;6.50;5.27;;;20.00;52.00;;;;;;4992856;28;20457;-81
2022/09/26 04:21:27;;;;;;;10.40;5.40;;;20.00;52.20;;;;;;4992387;28;20548;-81
2022/09/26 04:23:55;;;;;;;6.63;4.70;;;20.00;51.60;;;;;;4999054;28;20428;-81
2022/09/26 04:26:23;;;;;;;5.47;4.27;;;20.00;52.10;;;;;;4995430;28;20473;-81
2022/09/26 04:28:53;;;;;;;5.33;4.83;;;20.00;51.80;;;;;;4995342;28;20445;-81
2022/09/26 04:31:23;;;;;;;6.27;4.73;;;20.00;51.80;;;;;;4994864;28;20479;-81
2022/09/26 04:33:50;;;;;;;5.00;4.47;;;20.00;52.00;;;;;;4998919;28;20476;-81
2022/09/26 04:36:18;;;;;;;6.40;4.80;;;20.00;51.80;;;;;;4998953;28;20460;-82
2022/09/26 04:38:47;;;;;;;5.77;4.60;;;20.00;51.80;;;;;;4998007;28;20460;-81
2022/09/26 04:41:16;;;;;;;4.53;4.10;;;20.00;52.00;;;;;;4998584;28;20479;-82
2022/09/26 04:43:44;;;;;;;4.73;4.20;;;20.00;52.00;;;;;;5000522;28;20465;-81
2022/09/26 04:46:13;;;;;;;4.43;4.10;;;20.00;52.00;;;;;;5001571;28;20564;-81
2022/09/26 04:48:48;;;;;;;4.50;3.67;;;20.00;52.00;;;;;;4999403;28;20456;-81
2022/09/26 04:51:17;;;;;;;4.53;4.13;;;20.00;52.10;;;;;;4999957;28;20471;-81
2022/09/26 04:53:45;;;;;;;5.53;4.03;;;20.00;51.90;;;;;;4996064;28;20458;-81
2022/09/26 04:56:13;;;;;;;8.37;4.03;;;20.00;52.00;;;;;;4997659;28;20464;-81
2022/09/26 04:58:42;;;;;;;5.33;3.93;;;19.90;51.90;;;;;;5001335;28;20453;-81
2022/09/26 05:01:10;;;;;;;4.40;3.70;;;19.90;52.30;;;;;;5001684;28;20449;-81
2022/09/26 05:03:39;;;;;;;4.40;3.83;;;19.90;52.10;;;;;;5000624;28;20449;-81
2022/09/26 05:06:08;;;;;;;4.40;3.60;;;19.90;52.10;;;;;;4999238;28;20477;-81
2022/09/26 05:08:36;;;;;;;4.10;3.47;;;19.90;52.10;;;;;;5000796;28;20453;-81
2022/09/26 05:11:05;;;;;;;4.33;3.93;;;19.90;52.20;;;;;;5000261;28;20540;-80
2022/09/26 05:13:34;;;;;;;3.43;3.13;;;19.90;52.40;;;;;;4998584;28;20457;-81
2022/09/26 05:16:02;;;;;;;5.13;3.30;;;19.90;52.20;;;;;;4999843;28;20421;-81
2022/09/26 05:18:30;;;;;;;4.37;3.40;;;19.90;52.40;;;;;;5000658;28;20453;-81
2022/09/26 05:21:00;;;;;;;4.50;3.50;;;19.90;52.60;;;;;;4999428;28;20467;-80
2022/09/26 05:26:32;;;;;;;4.63;3.40;;;19.80;52.20;;;;;;4934819;29;20479;-81
2022/09/26 05:29:03;;;;;;;3.20;3.00;;;19.80;52.60;;;;;;4942099;29;20460;-81
2022/09/26 05:31:36;;;;;;;4.73;3.57;;;19.80;52.30;;;;;;4966362;28;20508;-81
2022/09/26 05:34:05;;;;;;;3.47;3.00;;;19.80;52.80;;;;;;4997064;28;20457;-80
2022/09/26 05:36:32;;;;;;;3.40;3.10;;;19.80;52.50;;;;;;5001869;28;20442;-81
2022/09/26 05:39:02;;;;;;;3.67;3.37;;;19.80;52.90;;;;;;4995935;28;20468;-81
2022/09/26 05:41:29;;;;;;;3.20;2.80;;;19.80;52.60;;;;;;4994718;28;20496;-81
2022/09/26 05:43:58;;;;;;;2.90;2.63;;;19.80;52.70;;;;;;4998018;28;20445;-81
2022/09/26 05:46:26;;;;;;;5.40;2.97;;;19.80;52.70;;;;;;5003248;28;20485;-81
2022/09/26 05:48:56;;;;;;;5.10;2.70;;;19.90;52.90;;;;;;4997806;28;20449;-81
2022/09/26 05:51:23;;;;;;;2.87;2.60;;;19.90;52.80;;;;;;4986449;28;20458;-81
2022/09/26 05:53:51;;;;;;;3.27;2.50;;;19.90;52.50;;;;;;4994048;28;20453;-81
2022/09/26 05:56:20;;;;;;;3.23;2.93;;;19.90;52.70;;;;;;4999374;28;20453;-81
2022/09/26 05:58:48;;;;;;;3.50;2.90;;;19.90;52.90;;;;;;4989044;28;20488;-81
2022/09/26 06:01:17;;;;;;;2.93;2.73;;;19.90;52.80;;;;;;5002136;28;20472;-81
2022/09/26 06:03:46;;;;;;;3.03;2.83;;;19.90;52.40;;;;;;5000899;28;20481;-81
2022/09/26 06:06:15;;;;;;;2.70;2.50;;;19.80;52.60;;;;;;5001479;28;20480;-81
2022/09/26 06:08:43;;;;;;;2.70;2.50;;;19.80;52.60;;;;;;4995820;28;20501;-81
2022/09/26 06:11:12;;;;;;;3.30;2.70;;;19.80;52.90;;;;;;4998275;28;20461;-81
2022/09/26 06:13:44;;;;;;;3.13;2.63;;;19.80;52.80;;;;;;4998657;28;20467;-81
2022/09/26 06:16:14;;;;;;;2.87;2.67;;;19.80;53.10;;;;;;5000137;28;20535;-81
2022/09/26 06:18:43;;;;;;;3.90;2.83;;;19.80;52.90;;;;;;5001009;28;20453;-81
2022/09/26 06:21:11;;;;;;;2.47;2.27;;;19.90;53.20;;;;;;5002661;28;20476;-81
2022/09/26 06:23:39;;;;;;;2.97;2.67;;;19.90;52.90;;;;;;5000654;28;20449;-81
2022/09/26 06:26:08;;;;;;;4.63;2.10;;;19.90;52.60;;;;;;4998289;28;20476;-81
2022/09/26 06:28:37;;;;;;;2.63;2.43;;;19.90;53.00;;;;;;4992878;28;20464;-81
2022/09/26 06:31:10;;;;;;;3.00;2.67;;;20.00;52.90;;;;;;5000893;28;20473;-81
2022/09/26 06:33:38;;;;;;;3.20;2.20;;;20.00;52.80;;;;;;5000063;28;20456;-81
2022/09/26 06:36:07;;;;;;;2.70;2.40;;;20.00;52.60;;;;;;5002739;28;20449;-81
2022/09/26 06:38:35;;;;;;;2.63;2.43;;;20.00;52.90;;;;;;5001436;28;20465;-81
2022/09/26 06:41:03;;;;;;;2.60;2.20;;;20.00;52.80;;;;;;5002598;28;20484;-81
2022/09/26 06:43:31;;;;;;;2.70;2.47;;;20.10;52.80;;;;;;4995290;28;20810;-81
2022/09/26 06:46:00;;;;;;;5.07;2.53;;;20.10;52.60;;;;;;5002766;28;20461;-81
2022/09/26 06:48:29;;;;;;;3.20;2.70;;;20.10;52.50;;;;;;4997444;28;20449;-81
2022/09/26 06:50:58;;;;;;;3.27;2.77;;;20.00;53.00;;;;;;4995862;28;20473;-81
2022/09/26 06:53:26;;;;;;;3.43;2.93;;;20.10;52.70;;;;;;5004489;28;20437;-82
2022/09/26 06:55:54;;;;;;;4.60;2.50;;;20.10;52.60;;;;;;4996850;28;20468;-81
2022/09/26 06:58:22;;;;;;;3.30;2.30;;;20.10;52.80;;;;;;4996393;28;20454;-81
2022/09/26 07:00:50;;;;;;;3.30;2.30;;;20.20;53.00;;;;;;5000305;28;20479;-81
2022/09/26 07:03:18;;;;;;;3.53;2.20;;;20.20;52.60;;;;;;4995834;28;20509;-81
2022/09/26 07:05:48;;;;;;;2.77;2.53;;;20.20;52.50;;;;;;4996649;28;20457;-81
2022/09/26 07:08:16;;;;;;;2.40;2.07;;;20.20;52.70;;;;;;5002780;28;20473;-82
2022/09/26 07:10:45;;;;;;;2.40;2.20;;;20.20;52.80;;;;;;5001041;28;20465;-81
2022/09/26 07:13:14;;;;;;;8.73;2.80;;;20.30;52.60;;;;;;4996868;28;20461;-81
2022/09/26 07:15:44;;;;;;;2.67;2.47;;;20.30;52.50;;;;;;4999921;28;20465;-81
2022/09/26 07:18:12;;;;;;;2.20;2.00;;;20.40;52.50;;;;;;4999151;28;20449;-81
2022/09/26 07:20:41;;;;;;;2.50;2.30;;;20.40;52.50;;;;;;4993800;28;20470;-81
2022/09/26 07:23:11;;;;;;;2.73;2.33;;;20.50;52.50;;;;;;4993928;28;20453;-81
2022/09/26 07:25:39;;;;;;;2.33;2.23;;;20.50;52.30;;;;;;4999648;28;20447;-81
2022/09/26 07:28:07;;;;;;;4.53;2.27;;;20.50;52.30;;;;;;5001365;28;20448;-82
2022/09/26 07:30:35;;;;;;;3.13;1.97;;;20.60;52.30;;;;;;4997433;28;20461;-81
2022/09/26 07:33:03;;;;;;;4.07;2.27;;;20.60;52.30;;;;;;5000231;28;20457;-81
2022/09/26 07:35:31;;;;;;;3.77;2.10;;;20.60;52.50;;;;;;4996310;28;20453;-81
2022/09/26 07:37:59;;;;;;;2.53;2.03;;;20.60;52.40;;;;;;4997541;28;20513;-80
2022/09/26 07:40:28;;;;;;;2.43;2.30;;;20.60;52.30;;;;;;4997275;28;20473;-81
2022/09/26 07:42:59;;;;;;;2.30;2.10;;;20.60;52.40;;;;;;5000211;28;20532;-81
2022/09/26 07:51:29;;;;;;;1.87;1.77;;;20.60;52.50;;;;;;4991391;28;20453;-81
2022/09/26 07:53:57;;;;;;;2.23;2.03;;;20.60;52.60;;;;;;5000662;28;20441;-81
2022/09/26 07:56:26;;;;;;;2.17;1.70;;;20.60;52.50;;;;;;5002875;28;20433;-82
2022/09/26 07:58:54;;;;;;;2.53;1.80;;;20.60;52.40;;;;;;5003517;28;20441;-82
2022/09/26 08:01:22;;;;;;;2.70;1.87;;;20.60;52.40;;;;;;5002274;28;20468;-82
2022/09/26 08:03:56;;;;;;;3.07;2.40;;;20.50;52.50;;;;;;5004821;28;20457;-82
2022/09/26 08:06:24;;;;;;;3.43;2.07;;;20.60;52.60;;;;;;5004947;28;20452;-82
2022/09/26 08:08:52;;;;;;;6.43;1.80;;;20.50;52.30;;;;;;5001641;28;20479;-82
2022/09/26 08:11:20;;;;;;;3.70;1.80;;;20.60;52.50;;;;;;5006243;28;20477;-82
2022/09/26 08:13:49;;;;;;;2.13;1.70;;;20.60;52.50;;;;;;5001930;28;20455;-82
2022/09/26 08:16:19;;;;;;;2.20;1.90;;;20.60;52.40;;;;;;5003430;28;20445;-81
2022/09/26 08:18:47;;;;;;;1.70;1.60;;;20.70;52.10;;;;;;5002945;28;20433;-82
2022/09/26 08:21:15;;;;;;;2.83;1.87;;;20.70;52.40;;;;;;4997235;28;20468;-82
2022/09/26 08:23:42;;;;;;;1.90;1.70;;;20.70;52.10;;;;;;5006081;28;20433;-81
2022/09/26 08:26:11;;;;;;;6.43;2.00;;;20.70;52.20;;;;;;5008587;28;20481;-82
2022/09/26 08:28:38;;;;;;;1.63;1.50;;;20.70;52.20;;;;;;5011048;28;20473;-82
2022/09/26 08:31:08;;;;;;;2.10;1.93;;;20.70;52.40;;;;;;5007586;28;20472;-82
2022/09/26 08:33:37;;;;;;;3.00;1.87;;;20.70;52.10;;;;;;5007444;28;20513;-82
2022/09/26 08:36:05;;;;;;;1.67;1.57;;;20.60;52.00;;;;;;5001845;28;20484;-82
2022/09/26 08:38:34;;;;;;;1.60;1.50;;;20.60;52.30;;;;;;5004987;28;20412;-82
2022/09/26 08:41:06;;;;;;;2.73;1.90;;;20.70;52.20;;;;;;5003125;28;20464;-82
2022/09/26 08:43:56;;;;;;;2.70;1.53;;;20.70;52.30;;;;;;5002902;28;20458;-82
2022/09/26 08:46:48;;;;;;;1.93;1.83;;;20.70;52.10;;;;;;5003773;28;20474;-81
2022/09/26 08:49:30;;;;;;;3.27;1.77;;;20.70;52.20;;;;;;5004451;28;20438;-82
2022/09/26 08:51:59;;;;;;;2.30;1.90;;;20.80;52.30;;;;;;5003587;28;20493;-82
2022/09/26 08:54:32;;;;;;;2.20;2.00;;;20.80;51.80;;;;;;4989061;28;20475;-82
2022/09/26 08:57:01;;;;;;;2.20;2.00;;;20.80;51.80;;;;;;4998431;28;20429;-79
2022/09/26 08:59:31;;;;;;;2.20;1.80;;;20.80;51.80;;;;;;5000763;28;20441;-79
2022/09/26 09:02:03;;;;;;;2.87;1.53;;;20.90;51.80;;;;;;5000962;28;20453;-79
2022/09/26 09:04:36;;;;;;;1.93;1.67;;;20.80;51.90;;;;;;4989947;28;20500;-79
2022/09/26 09:07:07;;;;;;;2.00;1.90;;;20.80;51.90;;;;;;5007613;28;20429;-79
2022/09/26 09:09:34;;;;;;;2.13;1.90;;;20.80;51.90;;;;;;5020105;28;20449;-79
2022/09/26 09:12:08;;;;;;;2.40;1.83;;;20.80;51.90;;;;;;5001140;28;20423;-80
2022/09/26 09:14:47;;;;;;;3.27;2.23;;;20.80;51.80;;;;;;4999816;28;20453;-80
2022/09/26 09:17:38;;;;;;;2.33;1.80;;;20.80;51.80;;;;;;5001210;28;20516;-80
2022/09/26 09:20:12;;;;;;;2.10;1.90;;;20.80;52.10;;;;;;5002195;28;20475;-80
2022/09/26 09:22:57;;;;;;;2.47;2.13;;;20.80;52.00;;;;;;4998672;28;20436;-80
2022/09/26 09:25:39;;;;;;;2.80;1.73;;;20.80;51.80;;;;;;4994691;28;20476;-80
2022/09/26 09:28:14;;;;;;;2.10;2.00;;;20.80;52.10;;;;;;4994920;28;20564;-79
2022/09/26 09:30:43;;;;;;;1.73;1.63;;;20.80;52.00;;;;;;4991693;28;20476;-79
2022/09/26 09:33:14;;;;;;;3.03;1.83;;;20.80;51.70;;;;;;4995132;28;20505;-85
2022/09/26 09:35:45;;;;;;;2.27;1.80;;;20.90;51.90;;;;;;4996279;28;20513;-80
2022/09/26 09:38:15;;;;;;;3.23;2.00;;;20.90;51.90;;;;;;4989557;28;20473;-80
2022/09/26 09:40:45;;;;;;;3.43;1.93;;;20.90;51.90;;;;;;4993119;28;20480;-80
2022/09/26 09:43:14;;;;;;;1.93;1.83;;;20.90;52.00;;;;;;4993343;28;20567;-79
2022/09/26 09:45:45;;;;;;;2.10;1.90;;;20.90;51.80;;;;;;4995307;28;20473;-79
2022/09/26 09:48:14;;;;;;;2.80;1.77;;;20.90;51.80;;;;;;4997160;28;20481;-79
2022/09/26 09:50:50;;;;;;;2.57;1.77;;;21.00;52.60;;;;;;4996979;28;20543;-79
2022/09/26 09:53:32;;;;;;;1.90;1.80;;;21.00;52.10;;;;;;5003796;28;20443;-79
2022/09/26 09:56:04;;;;;;;5.50;2.20;;;21.00;51.70;;;;;;5003552;28;20540;-79
2022/09/26 09:58:45;;;;;;;2.23;2.03;;;21.00;51.90;;;;;;4982600;28;20832;-80
2022/09/26 10:01:24;;;;;;;1.93;1.80;;;21.00;51.80;;;;;;4994166;28;20469;-79
2022/09/26 10:03:55;;;;;;;1.97;1.87;;;21.00;52.60;;;;;;4993001;28;20503;-80
2022/09/26 10:06:24;;;;;;;2.10;1.70;;;21.00;52.20;;;;;;4995794;28;20465;-81
2022/09/26 10:09:15;;;;;;;4.20;1.77;;;21.00;51.90;;;;;;4995963;28;20471;-80
2022/09/26 10:12:05;;;;;;;1.97;1.80;;;21.00;52.10;;;;;;4996844;28;20473;-80
2022/09/26 10:14:36;;;;;;;1.80;1.60;;;21.00;52.20;;;;;;4997193;28;20441;-79
2022/09/26 10:17:14;;;;;;;4.07;2.37;;;21.00;52.10;;;;;;4996627;28;20480;-79
2022/09/26 10:19:43;;;;;;;3.63;1.60;;;21.10;52.20;;;;;;4991997;28;20484;-78
2022/09/26 10:22:16;;;;;;;3.53;1.63;;;21.10;52.00;;;;;;4994940;28;20500;-80
2022/09/26 10:24:43;;;;;;;2.73;2.07;;;21.10;52.40;;;;;;4992458;28;20447;-81
2022/09/26 10:27:20;;;;;;;3.03;2.20;;;21.20;52.30;;;;;;4995583;28;20411;-80
2022/09/26 10:29:55;;;;;;;3.97;2.00;;;21.30;52.50;;;;;;4994546;28;20488;-79
2022/09/26 10:32:23;;;;;;;4.33;2.03;;;21.40;52.30;;;;;;4998965;28;20524;-79
2022/09/26 10:35:06;;;;;;;3.30;2.13;;;21.50;51.80;;;;;;4996027;28;20449;-78
2022/09/26 10:37:36;;;;;;;2.73;2.03;;;21.60;51.80;;;;;;4995787;28;20468;-79
2022/09/26 10:43:21;;;;;;;2.43;2.10;;;21.80;51.70;;;;;;4985910;28;20507;-78
2022/09/26 10:45:52;;;;;;;4.30;1.80;;;21.80;51.30;;;;;;4993081;28;20436;-78
2022/09/26 10:48:20;;;;;;;2.43;2.20;;;21.90;51.80;;;;;;4998486;28;20459;-78
2022/09/26 10:50:51;;;;;;;2.27;2.07;;;22.00;52.00;;;;;;4988476;28;20477;-77
2022/09/26 10:53:21;;;;;;;2.00;1.80;;;21.90;51.50;;;;;;4989611;28;20453;-77
2022/09/26 10:55:51;;;;;;;4.50;1.97;;;21.90;51.40;;;;;;4992755;28;20452;-77
2022/09/26 10:58:22;;;;;;;2.20;2.00;;;21.80;51.40;;;;;;4995805;28;20441;-77
2022/09/26 11:00:51;;;;;;;3.70;1.93;;;21.70;51.70;;;;;;4987545;28;20473;-78
2022/09/26 11:03:20;;;;;;;2.57;2.10;;;21.70;51.80;;;;;;4996460;28;20449;-78
2022/09/26 11:05:56;;;;;;;2.33;2.10;;;21.60;51.90;;;;;;4996768;28;20441;-78
2022/09/26 11:08:25;;;;;;;3.80;2.40;;;21.60;52.00;;;;;;4993681;28;20528;-77
2022/09/26 11:10:53;;;;;;;3.40;2.00;;;21.50;51.70;;;;;;4994486;28;20535;-76
2022/09/26 11:13:22;;;;;;;4.23;2.47;;;21.40;52.20;;;;;;4986275;28;20465;-77
2022/09/26 11:16:00;;;;;;;3.63;2.70;;;21.40;52.20;;;;;;4992189;28;20457;-77
2022/09/26 11:18:33;;;;;;;2.83;2.20;;;21.40;52.40;;;;;;4993565;28;20462;-77
2022/09/26 11:21:06;;;;;;;3.07;2.23;;;21.30;52.30;;;;;;4996460;28;20469;-78
2022/09/26 11:23:59;;;;;;;2.80;2.33;;;21.30;52.30;;;;;;4996500;28;20434;-78
2022/09/26 11:26:32;;;;;;;3.13;2.83;;;21.10;52.40;;;;;;4996359;28;20500;-77
2022/09/26 11:29:07;;;;;;;3.20;2.47;;;21.10;52.70;;;;;;4991801;28;20556;-78
2022/09/26 11:31:36;;;;;;;6.23;2.97;;;21.10;52.80;;;;;;4990768;28;20487;-79
2022/09/26 11:34:06;;;;;;;3.33;2.73;;;21.10;53.00;;;;;;4995822;28;20459;-78
2022/09/26 11:36:46;;;;;;;4.83;2.77;;;21.10;52.90;;;;;;4990808;28;20416;-78
2022/09/26 11:39:24;;;;;;;3.90;2.70;;;21.10;53.00;;;;;;4998000;28;20449;-78
2022/09/26 11:42:00;;;;;;;4.30;2.53;;;21.10;52.90;;;;;;4998092;28;20449;-78
2022/09/26 11:44:58;;;;;;;4.00;2.47;;;21.10;52.80;;;;;;4996363;28;20453;-78
2022/09/26 11:47:45;;;;;;;2.83;2.63;;;21.00;52.90;;;;;;4979762;28;20428;-78
2022/09/26 11:50:38;;;;;;;2.80;2.57;;;21.00;53.20;;;;;;4996347;28;20485;-78
2022/09/26 11:53:30;;;;;;;5.70;2.53;;;21.00;53.00;;;;;;4999099;28;20514;-79
2022/09/26 11:56:07;;;;;;;3.10;2.80;;;20.90;53.00;;;;;;4997351;28;20449;-78
2022/09/26 11:58:39;;;;;;;3.00;2.70;;;20.90;53.20;;;;;;4999301;28;20447;-79
2022/09/26 12:01:15;;;;;;;3.83;2.60;;;20.90;53.50;;;;;;5001131;28;20476;-79
2022/09/26 12:04:06;;;;;;;2.97;2.67;;;20.90;53.40;;;;;;4987946;28;20445;-79
2022/09/26 12:06:36;;;;;;;4.00;2.80;;;20.90;53.30;;;;;;4985126;28;20487;-78
2022/09/26 12:09:20;;;;;;;5.97;3.00;;;20.90;53.40;;;;;;4991836;28;20573;-80
2022/09/26 12:11:53;;;;;;;5.47;2.53;;;20.80;53.50;;;;;;4994853;28;20504;-79
2022/09/26 12:14:39;;;;;;;3.07;2.77;;;20.80;53.60;;;;;;4983803;28;20457;-78
2022/09/26 12:17:15;;;;;;;2.60;2.40;;;20.80;53.40;;;;;;4995904;28;20464;-79
2022/09/26 12:19:45;;;;;;;2.60;2.40;;;20.80;53.50;;;;;;4988650;28;20474;-79
2022/09/26 12:22:31;;;;;;;2.80;2.60;;;20.80;53.60;;;;;;4994410;28;20516;-79
2022/09/26 12:25:22;;;;;;;2.90;2.33;;;20.80;53.60;;;;;;4985799;28;20537;-79
2022/09/26 12:27:56;;;;;;;3.30;2.77;;;20.80;53.70;;;;;;4994560;28;20532;-78
2022/09/26 12:30:25;;;;;;;2.80;2.67;;;20.80;53.70;;;;;;4999636;28;20513;-79
2022/09/26 12:33:03;;;;;;;3.53;2.90;;;20.80;53.60;;;;;;5001578;28;20451;-79
2022/09/26 12:35:41;;;;;;;3.13;2.83;;;20.80;53.50;;;;;;5001534;28;20552;-78
2022/09/26 12:38:27;;;;;;;2.70;2.50;;;20.70;53.50;;;;;;4985783;28;20456;-80
2022/09/26 12:41:04;;;;;;;5.43;2.83;;;20.70;53.80;;;;;;4998619;28;20475;-79
2022/09/26 12:43:54;;;;;;;2.50;2.27;;;20.70;54.00;;;;;;4999418;28;20448;-80
2022/09/26 12:46:31;;;;;;;2.83;2.63;;;20.70;53.90;;;;;;4999804;28;20455;-80
2022/09/26 12:49:08;;;;;;;4.40;2.50;;;20.70;53.80;;;;;;4996488;28;20975;-79
2022/09/26 12:51:41;;;;;;;3.90;3.00;;;20.60;53.90;;;;;;4985060;28;20571;-78
2022/09/26 12:54:20;;;;;;;4.40;2.70;;;20.70;54.20;;;;;;4990329;28;20427;-78
2022/09/26 12:56:53;;;;;;;2.47;2.20;;;20.70;54.00;;;;;;4992824;28;20468;-77
2022/09/26 12:59:30;;;;;;;3.63;2.93;;;20.70;54.00;;;;;;4979966;28;20500;-78
2022/09/26 13:02:27;;;;;;;4.80;2.70;;;20.60;54.00;;;;;;4994258;28;20457;-78
2022/09/26 13:05:07;;;;;;;2.87;2.57;;;20.60;54.10;;;;;;4989919;28;20461;-78
2022/09/26 13:07:41;;;;;;;2.80;2.60;;;20.60;54.20;;;;;;4988272;28;20465;-78
2022/09/26 13:10:26;;;;;;;2.60;2.40;;;20.60;54.20;;;;;;4986478;28;20540;-78
2022/09/26 13:13:21;;;;;;;2.70;2.50;;;20.60;54.20;;;;;;4991734;28;20458;-78
2022/09/26 13:15:57;;;;;;;2.47;2.27;;;20.60;54.30;;;;;;4984595;28;20453;-79
2022/09/26 13:18:28;;;;;;;3.00;2.80;;;20.60;54.40;;;;;;4984698;28;20507;-78
2022/09/26 13:21:06;;;;;;;2.60;2.37;;;20.60;54.40;;;;;;4988857;28;20474;-78
2022/09/26 13:23:35;;;;;;;3.37;2.47;;;20.60;54.40;;;;;;4987862;28;20435;-78